sensor_id;sensor_type;location;lat;lon;timestamp;P1;durP1;ratioP1;P2;durP2;ratioP2
23236;SDS011;11787;52.018;8.570;2022-10-16T00:01:15;7.85;;;3.50;;
23236;SDS011;11787;52.018;8.570;2022-10-16T00:03:42;6.20;;;3.65;;
23236;SDS011;11787;52.018;8.570;2022-10-16T00:06:09;5.05;;;3.67;;
23236;SDS011;11787;52.018;8.570;2022-10-16T00:11:57;4.70;;;3.38;;
23236;SDS011;11787;52.018;8.570;2022-10-16T00:14:23;4.97;;;3.33;;
23236;SDS011;11787;52.018;8.570;2022-10-16T00:16:49;7.68;;;3.65;;
23236;SDS011;11787;52.018;8.570;2022-10-16T00:19:14;6.20;;;3.30;;
23236;SDS011;11787;52.018;8.570;2022-10-16T00:21:40;8.05;;;3.30;;
23236;SDS011;11787;52.018;8.570;2022-10-16T00:24:07;5.57;;;3.70;;
23236;SDS011;11787;52.018;8.570;2022-10-16T00:26:34;6.30;;;3.70;;
23236;SDS011;11787;52.018;8.570;2022-10-16T00:29:01;7.35;;;3.90;;
23236;SDS011;11787;52.018;8.570;2022-10-16T00:31:27;6.95;;;3.60;;
23236;SDS011;11787;52.018;8.570;2022-10-16T00:33:52;5.65;;;3.55;;
23236;SDS011;11787;52.018;8.570;2022-10-16T00:36:19;4.95;;;3.25;;
23236;SDS011;11787;52.018;8.570;2022-10-16T00:38:47;7.75;;;3.80;;
23236;SDS011;11787;52.018;8.570;2022-10-16T00:41:15;7.85;;;3.70;;
23236;SDS011;11787;52.018;8.570;2022-10-16T00:48:39;6.97;;;3.40;;
23236;SDS011;11787;52.018;8.570;2022-10-16T00:51:07;9.32;;;4.15;;
23236;SDS011;11787;52.018;8.570;2022-10-16T00:53:33;8.60;;;3.80;;
23236;SDS011;11787;52.018;8.570;2022-10-16T00:55:59;6.47;;;3.72;;
23236;SDS011;11787;52.018;8.570;2022-10-16T00:58:26;5.53;;;3.90;;
23236;SDS011;11787;52.018;8.570;2022-10-16T01:00:51;5.22;;;3.75;;
23236;SDS011;11787;52.018;8.570;2022-10-16T01:03:30;6.20;;;3.67;;
23236;SDS011;11787;52.018;8.570;2022-10-16T01:06:09;6.25;;;3.70;;
23236;SDS011;11787;52.018;8.570;2022-10-16T01:08:57;7.35;;;3.72;;
23236;SDS011;11787;52.018;8.570;2022-10-16T01:14:15;4.57;;;3.80;;
23236;SDS011;11787;52.018;8.570;2022-10-16T01:17:06;8.65;;;3.50;;
23236;SDS011;11787;52.018;8.570;2022-10-16T01:28:38;8.45;;;3.53;;
23236;SDS011;11787;52.018;8.570;2022-10-16T01:31:08;6.95;;;3.60;;
23236;SDS011;11787;52.018;8.570;2022-10-16T01:33:40;5.63;;;3.60;;
23236;SDS011;11787;52.018;8.570;2022-10-16T01:36:11;6.18;;;3.90;;
23236;SDS011;11787;52.018;8.570;2022-10-16T01:42:06;6.38;;;3.60;;
23236;SDS011;11787;52.018;8.570;2022-10-16T01:44:36;6.32;;;3.92;;
23236;SDS011;11787;52.018;8.570;2022-10-16T01:47:03;5.00;;;3.55;;
23236;SDS011;11787;52.018;8.570;2022-10-16T01:49:31;8.45;;;3.92;;
23236;SDS011;11787;52.018;8.570;2022-10-16T01:51:59;7.00;;;3.88;;
23236;SDS011;11787;52.018;8.570;2022-10-16T01:54:29;6.13;;;3.70;;
23236;SDS011;11787;52.018;8.570;2022-10-16T01:56:56;5.70;;;3.67;;
23236;SDS011;11787;52.018;8.570;2022-10-16T01:59:23;5.07;;;3.42;;
23236;SDS011;11787;52.018;8.570;2022-10-16T02:01:55;5.57;;;3.58;;
23236;SDS011;11787;52.018;8.570;2022-10-16T02:04:28;7.10;;;3.87;;
23236;SDS011;11787;52.018;8.570;2022-10-16T02:07:01;6.25;;;3.80;;
23236;SDS011;11787;52.018;8.570;2022-10-16T02:09:27;4.70;;;3.33;;
23236;SDS011;11787;52.018;8.570;2022-10-16T02:11:53;6.82;;;3.03;;
23236;SDS011;11787;52.018;8.570;2022-10-16T02:14:21;6.82;;;3.78;;
23236;SDS011;11787;52.018;8.570;2022-10-16T02:16:49;5.65;;;4.05;;
23236;SDS011;11787;52.018;8.570;2022-10-16T02:19:16;3.53;;;3.20;;
23236;SDS011;11787;52.018;8.570;2022-10-16T02:21:52;5.22;;;3.60;;
23236;SDS011;11787;52.018;8.570;2022-10-16T02:24:27;4.35;;;2.92;;
23236;SDS011;11787;52.018;8.570;2022-10-16T02:29:30;7.45;;;3.22;;
23236;SDS011;11787;52.018;8.570;2022-10-16T02:32:01;4.88;;;3.20;;
23236;SDS011;11787;52.018;8.570;2022-10-16T02:34:29;6.25;;;3.47;;
23236;SDS011;11787;52.018;8.570;2022-10-16T02:36:57;7.63;;;2.95;;
23236;SDS011;11787;52.018;8.570;2022-10-16T02:39:24;4.80;;;2.83;;
23236;SDS011;11787;52.018;8.570;2022-10-16T02:41:52;5.20;;;3.00;;
23236;SDS011;11787;52.018;8.570;2022-10-16T02:44:18;4.90;;;3.15;;
23236;SDS011;11787;52.018;8.570;2022-10-16T02:46:43;5.88;;;3.05;;
23236;SDS011;11787;52.018;8.570;2022-10-16T02:49:09;7.28;;;3.17;;
23236;SDS011;11787;52.018;8.570;2022-10-16T02:51:34;5.40;;;2.83;;
23236;SDS011;11787;52.018;8.570;2022-10-16T02:54:01;6.38;;;2.90;;
23236;SDS011;11787;52.018;8.570;2022-10-16T02:56:27;3.60;;;2.65;;
23236;SDS011;11787;52.018;8.570;2022-10-16T02:58:53;5.20;;;3.08;;
23236;SDS011;11787;52.018;8.570;2022-10-16T03:01:18;5.70;;;2.90;;
23236;SDS011;11787;52.018;8.570;2022-10-16T03:03:44;5.55;;;2.97;;
23236;SDS011;11787;52.018;8.570;2022-10-16T03:06:09;7.50;;;3.67;;
23236;SDS011;11787;52.018;8.570;2022-10-16T03:08:36;4.97;;;3.60;;
23236;SDS011;11787;52.018;8.570;2022-10-16T03:11:01;5.72;;;3.45;;
23236;SDS011;11787;52.018;8.570;2022-10-16T03:13:27;6.53;;;3.38;;
23236;SDS011;11787;52.018;8.570;2022-10-16T03:15:53;5.50;;;3.58;;
23236;SDS011;11787;52.018;8.570;2022-10-16T03:18:18;5.80;;;3.50;;
23236;SDS011;11787;52.018;8.570;2022-10-16T03:20:44;5.78;;;3.25;;
23236;SDS011;11787;52.018;8.570;2022-10-16T03:23:09;4.03;;;3.10;;
23236;SDS011;11787;52.018;8.570;2022-10-16T03:25:35;8.23;;;3.42;;
23236;SDS011;11787;52.018;8.570;2022-10-16T03:28:00;4.68;;;3.42;;
23236;SDS011;11787;52.018;8.570;2022-10-16T03:30:26;3.10;;;2.78;;
23236;SDS011;11787;52.018;8.570;2022-10-16T03:32:52;3.92;;;3.20;;
23236;SDS011;11787;52.018;8.570;2022-10-16T03:35:19;4.72;;;2.60;;
23236;SDS011;11787;52.018;8.570;2022-10-16T03:37:45;6.88;;;2.97;;
23236;SDS011;11787;52.018;8.570;2022-10-16T03:40:11;7.82;;;3.10;;
23236;SDS011;11787;52.018;8.570;2022-10-16T03:42:37;3.72;;;2.92;;
23236;SDS011;11787;52.018;8.570;2022-10-16T03:45:02;8.02;;;3.28;;
23236;SDS011;11787;52.018;8.570;2022-10-16T03:47:29;4.10;;;2.65;;
23236;SDS011;11787;52.018;8.570;2022-10-16T03:49:54;6.03;;;3.00;;
23236;SDS011;11787;52.018;8.570;2022-10-16T03:52:20;6.38;;;2.78;;
23236;SDS011;11787;52.018;8.570;2022-10-16T03:54:45;4.15;;;2.95;;
23236;SDS011;11787;52.018;8.570;2022-10-16T03:57:11;4.75;;;2.78;;
23236;SDS011;11787;52.018;8.570;2022-10-16T03:59:36;4.80;;;2.40;;
23236;SDS011;11787;52.018;8.570;2022-10-16T04:02:02;8.00;;;2.50;;
23236;SDS011;11787;52.018;8.570;2022-10-16T04:04:27;5.50;;;2.50;;
23236;SDS011;11787;52.018;8.570;2022-10-16T04:06:53;5.30;;;2.45;;
23236;SDS011;11787;52.018;8.570;2022-10-16T04:09:18;3.83;;;2.53;;
23236;SDS011;11787;52.018;8.570;2022-10-16T04:11:44;3.58;;;2.75;;
23236;SDS011;11787;52.018;8.570;2022-10-16T04:14:10;4.07;;;2.60;;
23236;SDS011;11787;52.018;8.570;2022-10-16T04:16:35;6.13;;;2.53;;
23236;SDS011;11787;52.018;8.570;2022-10-16T04:19:01;5.75;;;2.50;;
23236;SDS011;11787;52.018;8.570;2022-10-16T04:21:26;2.85;;;2.50;;
23236;SDS011;11787;52.018;8.570;2022-10-16T04:23:52;3.88;;;2.47;;
23236;SDS011;11787;52.018;8.570;2022-10-16T04:26:17;4.78;;;2.28;;
23236;SDS011;11787;52.018;8.570;2022-10-16T04:28:43;6.18;;;2.75;;
23236;SDS011;11787;52.018;8.570;2022-10-16T04:31:09;3.40;;;2.55;;
23236;SDS011;11787;52.018;8.570;2022-10-16T04:36:56;6.03;;;2.33;;
23236;SDS011;11787;52.018;8.570;2022-10-16T04:39:21;4.07;;;2.00;;
23236;SDS011;11787;52.018;8.570;2022-10-16T04:41:47;2.90;;;2.33;;
23236;SDS011;11787;52.018;8.570;2022-10-16T04:44:12;3.22;;;2.00;;
23236;SDS011;11787;52.018;8.570;2022-10-16T04:46:38;5.70;;;2.20;;
23236;SDS011;11787;52.018;8.570;2022-10-16T04:49:03;3.30;;;2.17;;
23236;SDS011;11787;52.018;8.570;2022-10-16T04:51:29;3.35;;;1.48;;
23236;SDS011;11787;52.018;8.570;2022-10-16T04:53:55;4.15;;;2.20;;
23236;SDS011;11787;52.018;8.570;2022-10-16T04:56:20;3.60;;;1.80;;
23236;SDS011;11787;52.018;8.570;2022-10-16T04:58:47;4.75;;;1.90;;
23236;SDS011;11787;52.018;8.570;2022-10-16T05:01:12;5.68;;;1.55;;
23236;SDS011;11787;52.018;8.570;2022-10-16T05:03:38;3.90;;;1.80;;
23236;SDS011;11787;52.018;8.570;2022-10-16T05:06:07;2.63;;;1.88;;
23236;SDS011;11787;52.018;8.570;2022-10-16T05:08:32;3.00;;;1.67;;
23236;SDS011;11787;52.018;8.570;2022-10-16T05:10:58;2.85;;;1.73;;
23236;SDS011;11787;52.018;8.570;2022-10-16T05:13:24;2.33;;;1.92;;
23236;SDS011;11787;52.018;8.570;2022-10-16T05:15:49;3.72;;;1.85;;
23236;SDS011;11787;52.018;8.570;2022-10-16T05:18:15;1.60;;;1.50;;
23236;SDS011;11787;52.018;8.570;2022-10-16T05:20:41;2.38;;;1.52;;
23236;SDS011;11787;52.018;8.570;2022-10-16T05:23:07;3.80;;;1.63;;
23236;SDS011;11787;52.018;8.570;2022-10-16T05:25:35;4.03;;;1.60;;
23236;SDS011;11787;52.018;8.570;2022-10-16T05:28:00;3.67;;;1.20;;
23236;SDS011;11787;52.018;8.570;2022-10-16T05:30:26;3.60;;;1.42;;
23236;SDS011;11787;52.018;8.570;2022-10-16T05:32:52;3.05;;;1.23;;
23236;SDS011;11787;52.018;8.570;2022-10-16T05:35:18;3.10;;;1.27;;
23236;SDS011;11787;52.018;8.570;2022-10-16T05:37:44;1.63;;;1.35;;
23236;SDS011;11787;52.018;8.570;2022-10-16T05:40:10;1.50;;;1.40;;
23236;SDS011;11787;52.018;8.570;2022-10-16T05:42:37;1.95;;;1.20;;
23236;SDS011;11787;52.018;8.570;2022-10-16T05:45:04;2.17;;;1.10;;
23236;SDS011;11787;52.018;8.570;2022-10-16T05:47:31;3.20;;;1.58;;
23236;SDS011;11787;52.018;8.570;2022-10-16T05:49:56;2.97;;;1.13;;
23236;SDS011;11787;52.018;8.570;2022-10-16T05:52:22;1.92;;;0.95;;
23236;SDS011;11787;52.018;8.570;2022-10-16T05:54:47;2.95;;;0.90;;
23236;SDS011;11787;52.018;8.570;2022-10-16T05:57:13;2.50;;;1.20;;
23236;SDS011;11787;52.018;8.570;2022-10-16T05:59:38;2.70;;;1.40;;
23236;SDS011;11787;52.018;8.570;2022-10-16T06:02:04;1.65;;;1.10;;
23236;SDS011;11787;52.018;8.570;2022-10-16T06:04:30;3.45;;;1.20;;
23236;SDS011;11787;52.018;8.570;2022-10-16T06:06:57;2.05;;;1.10;;
23236;SDS011;11787;52.018;8.570;2022-10-16T06:09:25;1.88;;;1.20;;
23236;SDS011;11787;52.018;8.570;2022-10-16T06:29:58;1.52;;;0.88;;
23236;SDS011;11787;52.018;8.570;2022-10-16T10:10:41;1.58;;;0.80;;
23236;SDS011;11787;52.018;8.570;2022-10-16T10:21:03;2.75;;;0.90;;
23236;SDS011;11787;52.018;8.570;2022-10-16T13:08:52;4.00;;;1.25;;
23236;SDS011;11787;52.018;8.570;2022-10-16T13:29:32;3.10;;;1.05;;
23236;SDS011;11787;52.018;8.570;2022-10-16T13:32:06;2.08;;;0.80;;
23236;SDS011;11787;52.018;8.570;2022-10-16T13:34:41;2.40;;;0.70;;
23236;SDS011;11787;52.018;8.570;2022-10-16T13:37:18;1.98;;;0.70;;
23236;SDS011;11787;52.018;8.570;2022-10-16T13:39:46;4.03;;;0.80;;
23236;SDS011;11787;52.018;8.570;2022-10-16T13:42:13;1.05;;;0.70;;
23236;SDS011;11787;52.018;8.570;2022-10-16T13:44:51;1.65;;;0.60;;
23236;SDS011;11787;52.018;8.570;2022-10-16T13:47:21;3.88;;;0.90;;
23236;SDS011;11787;52.018;8.570;2022-10-16T13:50:05;1.92;;;0.60;;
23236;SDS011;11787;52.018;8.570;2022-10-16T13:52:36;4.70;;;0.90;;
23236;SDS011;11787;52.018;8.570;2022-10-16T13:55:03;2.08;;;0.75;;
23236;SDS011;11787;52.018;8.570;2022-10-16T13:57:49;4.22;;;1.10;;
23236;SDS011;11787;52.018;8.570;2022-10-16T14:03:05;3.70;;;0.82;;
23236;SDS011;11787;52.018;8.570;2022-10-16T14:09:09;3.30;;;1.00;;
23236;SDS011;11787;52.018;8.570;2022-10-16T14:11:46;1.92;;;0.98;;
23236;SDS011;11787;52.018;8.570;2022-10-16T14:14:16;2.35;;;0.93;;
23236;SDS011;11787;52.018;8.570;2022-10-16T14:16:43;4.25;;;1.10;;
23236;SDS011;11787;52.018;8.570;2022-10-16T14:48:22;2.40;;;0.75;;
23236;SDS011;11787;52.018;8.570;2022-10-16T14:50:48;1.80;;;0.90;;
23236;SDS011;11787;52.018;8.570;2022-10-16T14:53:14;2.38;;;1.25;;
23236;SDS011;11787;52.018;8.570;2022-10-16T14:55:40;3.28;;;1.20;;
23236;SDS011;11787;52.018;8.570;2022-10-16T14:58:17;2.13;;;0.88;;
23236;SDS011;11787;52.018;8.570;2022-10-16T15:00:46;2.63;;;1.08;;
23236;SDS011;11787;52.018;8.570;2022-10-16T15:03:12;3.03;;;0.90;;
23236;SDS011;11787;52.018;8.570;2022-10-16T15:05:38;3.08;;;0.88;;
23236;SDS011;11787;52.018;8.570;2022-10-16T15:08:03;2.78;;;0.88;;
23236;SDS011;11787;52.018;8.570;2022-10-16T15:10:33;2.10;;;0.80;;
23236;SDS011;11787;52.018;8.570;2022-10-16T15:13:03;3.45;;;0.90;;
23236;SDS011;11787;52.018;8.570;2022-10-16T15:15:40;2.90;;;1.00;;
23236;SDS011;11787;52.018;8.570;2022-10-16T15:18:10;2.22;;;1.00;;
23236;SDS011;11787;52.018;8.570;2022-10-16T15:20:37;3.33;;;1.02;;
23236;SDS011;11787;52.018;8.570;2022-10-16T15:23:05;3.13;;;1.23;;
23236;SDS011;11787;52.018;8.570;2022-10-16T15:28:56;3.83;;;1.27;;
23236;SDS011;11787;52.018;8.570;2022-10-16T15:34:44;2.15;;;1.25;;
23236;SDS011;11787;52.018;8.570;2022-10-16T15:37:10;2.50;;;1.20;;
23236;SDS011;11787;52.018;8.570;2022-10-16T15:39:36;2.70;;;1.20;;
23236;SDS011;11787;52.018;8.570;2022-10-16T15:42:02;3.60;;;1.38;;
23236;SDS011;11787;52.018;8.570;2022-10-16T15:44:28;3.03;;;1.10;;
23236;SDS011;11787;52.018;8.570;2022-10-16T15:46:55;3.60;;;1.15;;
23236;SDS011;11787;52.018;8.570;2022-10-16T15:49:21;3.53;;;1.10;;
23236;SDS011;11787;52.018;8.570;2022-10-16T15:51:47;4.60;;;1.38;;
23236;SDS011;11787;52.018;8.570;2022-10-16T15:57:35;2.53;;;1.20;;
23236;SDS011;11787;52.018;8.570;2022-10-16T16:08:16;2.10;;;1.23;;
23236;SDS011;11787;52.018;8.570;2022-10-16T16:10:42;3.25;;;1.45;;
23236;SDS011;11787;52.018;8.570;2022-10-16T16:16:29;4.57;;;1.58;;
23236;SDS011;11787;52.018;8.570;2022-10-16T16:18:55;2.03;;;1.10;;
23236;SDS011;11787;52.018;8.570;2022-10-16T16:24:42;4.78;;;1.52;;
23236;SDS011;11787;52.018;8.570;2022-10-16T16:27:08;2.25;;;1.27;;
23236;SDS011;11787;52.018;8.570;2022-10-16T16:32:56;3.22;;;1.50;;
23236;SDS011;11787;52.018;8.570;2022-10-16T16:35:21;3.78;;;1.70;;
23236;SDS011;11787;52.018;8.570;2022-10-16T16:37:47;2.35;;;1.60;;
23236;SDS011;11787;52.018;8.570;2022-10-16T16:40:13;4.97;;;2.20;;
23236;SDS011;11787;52.018;8.570;2022-10-16T16:42:38;3.90;;;1.88;;
23236;SDS011;11787;52.018;8.570;2022-10-16T16:45:04;4.72;;;1.80;;
23236;SDS011;11787;52.018;8.570;2022-10-16T16:47:30;5.47;;;1.90;;
23236;SDS011;11787;52.018;8.570;2022-10-16T16:49:56;4.15;;;1.77;;
23236;SDS011;11787;52.018;8.570;2022-10-16T16:52:21;6.57;;;2.78;;
23236;SDS011;11787;52.018;8.570;2022-10-16T16:54:47;4.63;;;2.90;;
23236;SDS011;11787;52.018;8.570;2022-10-16T16:57:17;5.63;;;3.00;;
23236;SDS011;11787;52.018;8.570;2022-10-16T16:59:44;4.55;;;2.70;;
23236;SDS011;11787;52.018;8.570;2022-10-16T17:02:09;4.90;;;3.15;;
23236;SDS011;11787;52.018;8.570;2022-10-16T17:04:35;4.80;;;2.85;;
23236;SDS011;11787;52.018;8.570;2022-10-16T17:07:00;7.40;;;3.03;;
23236;SDS011;11787;52.018;8.570;2022-10-16T17:09:26;4.50;;;3.20;;
23236;SDS011;11787;52.018;8.570;2022-10-16T17:15:14;6.70;;;3.47;;
23236;SDS011;11787;52.018;8.570;2022-10-16T17:17:39;9.75;;;3.40;;
23236;SDS011;11787;52.018;8.570;2022-10-16T17:20:05;8.43;;;3.03;;
23236;SDS011;11787;52.018;8.570;2022-10-16T17:22:33;5.38;;;2.67;;
23236;SDS011;11787;52.018;8.570;2022-10-16T17:24:59;3.97;;;2.45;;
23236;SDS011;11787;52.018;8.570;2022-10-16T17:27:27;8.23;;;2.63;;
23236;SDS011;11787;52.018;8.570;2022-10-16T17:29:52;7.10;;;2.63;;
23236;SDS011;11787;52.018;8.570;2022-10-16T17:32:18;5.07;;;2.80;;
23236;SDS011;11787;52.018;8.570;2022-10-16T17:34:45;5.70;;;2.83;;
23236;SDS011;11787;52.018;8.570;2022-10-16T17:37:10;5.65;;;2.85;;
23236;SDS011;11787;52.018;8.570;2022-10-16T17:39:36;7.28;;;2.83;;
23236;SDS011;11787;52.018;8.570;2022-10-16T17:42:02;8.70;;;3.20;;
23236;SDS011;11787;52.018;8.570;2022-10-16T17:44:27;6.60;;;2.65;;
23236;SDS011;11787;52.018;8.570;2022-10-16T17:46:53;6.43;;;2.80;;
23236;SDS011;11787;52.018;8.570;2022-10-16T17:49:19;4.25;;;2.67;;
23236;SDS011;11787;52.018;8.570;2022-10-16T17:51:45;4.97;;;2.47;;
23236;SDS011;11787;52.018;8.570;2022-10-16T17:54:13;3.88;;;2.30;;
23236;SDS011;11787;52.018;8.570;2022-10-16T17:56:39;4.95;;;2.28;;
23236;SDS011;11787;52.018;8.570;2022-10-16T17:59:05;5.70;;;2.58;;
23236;SDS011;11787;52.018;8.570;2022-10-16T18:04:53;5.45;;;2.40;;
23236;SDS011;11787;52.018;8.570;2022-10-16T18:07:19;5.03;;;2.35;;
23236;SDS011;11787;52.018;8.570;2022-10-16T18:09:45;3.55;;;2.40;;
23236;SDS011;11787;52.018;8.570;2022-10-16T18:15:33;4.13;;;2.67;;
23236;SDS011;11787;52.018;8.570;2022-10-16T18:17:58;3.80;;;2.83;;
23236;SDS011;11787;52.018;8.570;2022-10-16T18:20:24;4.38;;;2.78;;
23236;SDS011;11787;52.018;8.570;2022-10-16T18:22:49;5.20;;;2.70;;
23236;SDS011;11787;52.018;8.570;2022-10-16T18:25:15;3.60;;;2.42;;
23236;SDS011;11787;52.018;8.570;2022-10-16T18:27:41;6.13;;;2.58;;
